sensor_id;sensor_type;location;lat;lon;timestamp;P1;durP1;ratioP1;P2;durP2;ratioP2
68140;SDS011;54941;52.220;104.306;2023-09-08T00:01:36;14.23;;;7.85;;
68140;SDS011;54941;52.220;104.306;2023-09-08T00:04:02;11.43;;;7.78;;
68140;SDS011;54941;52.220;104.306;2023-09-08T00:06:28;11.80;;;7.03;;
68140;SDS011;54941;52.220;104.306;2023-09-08T00:08:56;12.10;;;7.07;;
68140;SDS011;54941;52.220;104.306;2023-09-08T00:11:23;14.02;;;7.22;;
68140;SDS011;54941;52.220;104.306;2023-09-08T00:13:49;12.48;;;7.65;;
68140;SDS011;54941;52.220;104.306;2023-09-08T00:16:15;12.88;;;7.00;;
68140;SDS011;54941;52.220;104.306;2023-09-08T00:18:41;12.70;;;7.65;;
68140;SDS011;54941;52.220;104.306;2023-09-08T00:21:08;15.10;;;7.72;;
68140;SDS011;54941;52.220;104.306;2023-09-08T00:23:34;14.95;;;6.50;;
68140;SDS011;54941;52.220;104.306;2023-09-08T00:26:02;13.48;;;6.55;;
68140;SDS011;54941;52.220;104.306;2023-09-08T00:28:28;14.45;;;6.78;;
68140;SDS011;54941;52.220;104.306;2023-09-08T00:30:54;11.80;;;6.40;;
68140;SDS011;54941;52.220;104.306;2023-09-08T00:33:21;12.20;;;6.25;;
68140;SDS011;54941;52.220;104.306;2023-09-08T00:35:49;11.70;;;6.35;;
68140;SDS011;54941;52.220;104.306;2023-09-08T00:38:15;13.45;;;5.95;;
68140;SDS011;54941;52.220;104.306;2023-09-08T00:40:41;9.32;;;5.82;;
68140;SDS011;54941;52.220;104.306;2023-09-08T00:43:09;10.70;;;6.38;;
68140;SDS011;54941;52.220;104.306;2023-09-08T00:45:36;12.65;;;6.63;;
68140;SDS011;54941;52.220;104.306;2023-09-08T00:48:05;8.80;;;6.10;;
68140;SDS011;54941;52.220;104.306;2023-09-08T00:50:32;11.15;;;6.50;;
68140;SDS011;54941;52.220;104.306;2023-09-08T00:52:59;10.65;;;5.85;;
68140;SDS011;54941;52.220;104.306;2023-09-08T00:55:25;12.15;;;6.38;;
68140;SDS011;54941;52.220;104.306;2023-09-08T00:57:52;11.90;;;6.43;;
68140;SDS011;54941;52.220;104.306;2023-09-08T01:00:19;14.75;;;8.10;;
68140;SDS011;54941;52.220;104.306;2023-09-08T01:02:46;13.48;;;8.77;;
68140;SDS011;54941;52.220;104.306;2023-09-08T01:05:12;15.48;;;9.85;;
68140;SDS011;54941;52.220;104.306;2023-09-08T01:07:41;14.93;;;9.63;;
68140;SDS011;54941;52.220;104.306;2023-09-08T01:10:08;15.95;;;8.88;;
68140;SDS011;54941;52.220;104.306;2023-09-08T01:12:35;17.20;;;9.68;;
68140;SDS011;54941;52.220;104.306;2023-09-08T01:15:01;21.10;;;10.57;;
68140;SDS011;54941;52.220;104.306;2023-09-08T01:17:31;13.48;;;7.68;;
68140;SDS011;54941;52.220;104.306;2023-09-08T01:20:00;11.90;;;7.93;;
68140;SDS011;54941;52.220;104.306;2023-09-08T01:22:36;13.63;;;7.55;;
68140;SDS011;54941;52.220;104.306;2023-09-08T01:25:19;11.18;;;7.50;;
68140;SDS011;54941;52.220;104.306;2023-09-08T01:27:48;12.48;;;7.80;;
68140;SDS011;54941;52.220;104.306;2023-09-08T01:30:16;12.70;;;7.43;;
68140;SDS011;54941;52.220;104.306;2023-09-08T01:32:43;12.52;;;7.25;;
68140;SDS011;54941;52.220;104.306;2023-09-08T01:35:11;9.88;;;6.95;;
68140;SDS011;54941;52.220;104.306;2023-09-08T01:37:41;11.43;;;7.38;;
68140;SDS011;54941;52.220;104.306;2023-09-08T01:40:07;12.45;;;7.20;;
68140;SDS011;54941;52.220;104.306;2023-09-08T01:42:36;14.18;;;7.20;;
68140;SDS011;54941;52.220;104.306;2023-09-08T01:45:02;11.70;;;7.00;;
68140;SDS011;54941;52.220;104.306;2023-09-08T01:47:30;15.98;;;7.35;;
68140;SDS011;54941;52.220;104.306;2023-09-08T01:49:56;14.27;;;6.43;;
68140;SDS011;54941;52.220;104.306;2023-09-08T01:52:23;24.58;;;8.00;;
68140;SDS011;54941;52.220;104.306;2023-09-08T01:54:50;23.67;;;8.18;;
68140;SDS011;54941;52.220;104.306;2023-09-08T01:57:16;14.23;;;5.97;;
68140;SDS011;54941;52.220;104.306;2023-09-08T01:59:44;12.57;;;5.75;;
68140;SDS011;54941;52.220;104.306;2023-09-08T02:02:11;9.25;;;4.60;;
68140;SDS011;54941;52.220;104.306;2023-09-08T02:04:37;6.32;;;4.13;;
68140;SDS011;54941;52.220;104.306;2023-09-08T02:07:03;8.88;;;4.30;;
68140;SDS011;54941;52.220;104.306;2023-09-08T02:09:30;6.10;;;4.50;;
68140;SDS011;54941;52.220;104.306;2023-09-08T02:11:57;7.63;;;5.50;;
68140;SDS011;54941;52.220;104.306;2023-09-08T02:14:23;10.52;;;6.88;;
68140;SDS011;54941;52.220;104.306;2023-09-08T02:16:51;15.05;;;8.95;;
68140;SDS011;54941;52.220;104.306;2023-09-08T02:19:18;12.95;;;7.15;;
68140;SDS011;54941;52.220;104.306;2023-09-08T02:21:44;12.90;;;7.70;;
68140;SDS011;54941;52.220;104.306;2023-09-08T02:24:10;12.77;;;7.60;;
68140;SDS011;54941;52.220;104.306;2023-09-08T02:26:37;17.50;;;8.32;;
68140;SDS011;54941;52.220;104.306;2023-09-08T02:29:04;15.20;;;7.80;;
68140;SDS011;54941;52.220;104.306;2023-09-08T02:31:30;13.55;;;7.63;;
68140;SDS011;54941;52.220;104.306;2023-09-08T02:33:58;18.40;;;8.63;;
68140;SDS011;54941;52.220;104.306;2023-09-08T02:36:24;18.83;;;8.82;;
68140;SDS011;54941;52.220;104.306;2023-09-08T02:38:50;19.65;;;7.28;;
68140;SDS011;54941;52.220;104.306;2023-09-08T02:41:17;14.40;;;6.43;;
68140;SDS011;54941;52.220;104.306;2023-09-08T02:43:43;11.00;;;6.03;;
68140;SDS011;54941;52.220;104.306;2023-09-08T02:46:09;13.93;;;6.28;;
68140;SDS011;54941;52.220;104.306;2023-09-08T02:48:36;13.98;;;5.82;;
68140;SDS011;54941;52.220;104.306;2023-09-08T02:51:04;14.60;;;6.35;;
68140;SDS011;54941;52.220;104.306;2023-09-08T02:53:31;18.17;;;6.45;;
68140;SDS011;54941;52.220;104.306;2023-09-08T02:55:58;16.20;;;6.95;;
68140;SDS011;54941;52.220;104.306;2023-09-08T02:58:25;14.85;;;6.55;;
68140;SDS011;54941;52.220;104.306;2023-09-08T03:00:51;17.13;;;6.55;;
68140;SDS011;54941;52.220;104.306;2023-09-08T03:03:18;16.98;;;7.10;;
68140;SDS011;54941;52.220;104.306;2023-09-08T03:05:44;14.63;;;6.85;;
68140;SDS011;54941;52.220;104.306;2023-09-08T03:08:12;19.85;;;8.05;;
68140;SDS011;54941;52.220;104.306;2023-09-08T03:10:38;21.73;;;7.65;;
68140;SDS011;54941;52.220;104.306;2023-09-08T03:13:05;14.98;;;7.15;;
68140;SDS011;54941;52.220;104.306;2023-09-08T03:15:32;18.27;;;7.70;;
68140;SDS011;54941;52.220;104.306;2023-09-08T03:18:00;15.95;;;7.47;;
68140;SDS011;54941;52.220;104.306;2023-09-08T03:20:26;20.85;;;7.78;;
68140;SDS011;54941;52.220;104.306;2023-09-08T03:22:53;14.60;;;7.55;;
68140;SDS011;54941;52.220;104.306;2023-09-08T03:25:21;14.43;;;7.85;;
68140;SDS011;54941;52.220;104.306;2023-09-08T03:27:47;16.92;;;8.40;;
68140;SDS011;54941;52.220;104.306;2023-09-08T03:30:13;16.17;;;8.13;;
68140;SDS011;54941;52.220;104.306;2023-09-08T03:32:40;14.20;;;8.38;;
68140;SDS011;54941;52.220;104.306;2023-09-08T03:35:06;16.48;;;8.32;;
68140;SDS011;54941;52.220;104.306;2023-09-08T03:37:34;17.60;;;8.32;;
68140;SDS011;54941;52.220;104.306;2023-09-08T03:40:00;16.33;;;8.95;;
68140;SDS011;54941;52.220;104.306;2023-09-08T03:42:31;19.65;;;8.13;;
68140;SDS011;54941;52.220;104.306;2023-09-08T03:44:57;15.80;;;7.30;;
68140;SDS011;54941;52.220;104.306;2023-09-08T03:47:24;10.57;;;5.72;;
68140;SDS011;54941;52.220;104.306;2023-09-08T03:49:50;11.07;;;5.55;;
68140;SDS011;54941;52.220;104.306;2023-09-08T03:52:16;7.97;;;5.18;;
68140;SDS011;54941;52.220;104.306;2023-09-08T03:54:43;8.18;;;5.25;;
68140;SDS011;54941;52.220;104.306;2023-09-08T03:57:09;8.77;;;5.45;;
68140;SDS011;54941;52.220;104.306;2023-09-08T03:59:37;7.35;;;5.13;;
68140;SDS011;54941;52.220;104.306;2023-09-08T04:02:03;9.05;;;5.20;;
68140;SDS011;54941;52.220;104.306;2023-09-08T04:04:29;8.13;;;4.72;;
68140;SDS011;54941;52.220;104.306;2023-09-08T04:06:55;10.52;;;6.28;;
68140;SDS011;54941;52.220;104.306;2023-09-08T04:09:22;9.88;;;5.90;;
68140;SDS011;54941;52.220;104.306;2023-09-08T04:11:48;9.43;;;6.10;;
68140;SDS011;54941;52.220;104.306;2023-09-08T04:14:15;13.30;;;6.03;;
68140;SDS011;54941;52.220;104.306;2023-09-08T04:16:42;9.52;;;6.47;;
68140;SDS011;54941;52.220;104.306;2023-09-08T04:19:09;10.43;;;6.57;;
68140;SDS011;54941;52.220;104.306;2023-09-08T04:21:35;8.73;;;6.30;;
68140;SDS011;54941;52.220;104.306;2023-09-08T04:24:01;9.57;;;5.72;;
68140;SDS011;54941;52.220;104.306;2023-09-08T04:26:28;7.80;;;5.95;;
68140;SDS011;54941;52.220;104.306;2023-09-08T04:28:54;7.30;;;5.03;;
68140;SDS011;54941;52.220;104.306;2023-09-08T04:31:20;8.02;;;5.63;;
68140;SDS011;54941;52.220;104.306;2023-09-08T04:33:48;7.47;;;5.13;;
68140;SDS011;54941;52.220;104.306;2023-09-08T04:36:15;8.65;;;5.28;;
68140;SDS011;54941;52.220;104.306;2023-09-08T04:38:41;9.40;;;5.78;;
68140;SDS011;54941;52.220;104.306;2023-09-08T04:41:07;7.88;;;5.40;;
68140;SDS011;54941;52.220;104.306;2023-09-08T04:43:33;9.77;;;6.10;;
68140;SDS011;54941;52.220;104.306;2023-09-08T04:46:00;8.82;;;6.50;;
68140;SDS011;54941;52.220;104.306;2023-09-08T04:48:26;8.98;;;6.25;;
68140;SDS011;54941;52.220;104.306;2023-09-08T04:50:54;9.55;;;5.78;;
68140;SDS011;54941;52.220;104.306;2023-09-08T04:53:20;8.82;;;5.78;;
68140;SDS011;54941;52.220;104.306;2023-09-08T04:55:47;6.45;;;4.40;;
68140;SDS011;54941;52.220;104.306;2023-09-08T04:58:13;7.10;;;4.78;;
68140;SDS011;54941;52.220;104.306;2023-09-08T05:00:40;7.05;;;4.53;;
68140;SDS011;54941;52.220;104.306;2023-09-08T05:03:06;8.45;;;4.22;;
68140;SDS011;54941;52.220;104.306;2023-09-08T05:05:32;6.32;;;4.18;;
68140;SDS011;54941;52.220;104.306;2023-09-08T05:08:00;5.88;;;4.30;;
68140;SDS011;54941;52.220;104.306;2023-09-08T05:10:27;7.60;;;3.85;;
68140;SDS011;54941;52.220;104.306;2023-09-08T05:12:53;4.85;;;3.40;;
68140;SDS011;54941;52.220;104.306;2023-09-08T05:15:19;6.43;;;3.70;;
68140;SDS011;54941;52.220;104.306;2023-09-08T05:17:46;4.93;;;3.60;;
68140;SDS011;54941;52.220;104.306;2023-09-08T05:20:12;6.47;;;3.67;;
68140;SDS011;54941;52.220;104.306;2023-09-08T05:22:39;7.00;;;4.10;;
68140;SDS011;54941;52.220;104.306;2023-09-08T05:25:07;9.15;;;3.45;;
68140;SDS011;54941;52.220;104.306;2023-09-08T05:27:34;6.65;;;3.83;;
68140;SDS011;54941;52.220;104.306;2023-09-08T05:30:00;6.63;;;4.03;;
68140;SDS011;54941;52.220;104.306;2023-09-08T05:32:27;6.38;;;3.35;;
68140;SDS011;54941;52.220;104.306;2023-09-08T05:34:54;6.05;;;3.30;;
68140;SDS011;54941;52.220;104.306;2023-09-08T05:37:20;5.80;;;3.53;;
68140;SDS011;54941;52.220;104.306;2023-09-08T05:39:47;7.68;;;3.55;;
68140;SDS011;54941;52.220;104.306;2023-09-08T05:42:14;5.00;;;3.15;;
68140;SDS011;54941;52.220;104.306;2023-09-08T05:44:41;8.50;;;3.40;;
68140;SDS011;54941;52.220;104.306;2023-09-08T05:47:08;6.65;;;3.20;;
68140;SDS011;54941;52.220;104.306;2023-09-08T05:49:34;5.50;;;3.28;;
68140;SDS011;54941;52.220;104.306;2023-09-08T05:52:00;6.68;;;3.78;;
68140;SDS011;54941;52.220;104.306;2023-09-08T05:54:26;6.70;;;3.30;;
68140;SDS011;54941;52.220;104.306;2023-09-08T05:56:53;5.90;;;3.22;;
68140;SDS011;54941;52.220;104.306;2023-09-08T05:59:21;9.60;;;4.15;;
68140;SDS011;54941;52.220;104.306;2023-09-08T06:01:47;6.55;;;3.38;;
68140;SDS011;54941;52.220;104.306;2023-09-08T06:04:13;8.63;;;4.28;;
68140;SDS011;54941;52.220;104.306;2023-09-08T06:06:39;5.38;;;3.03;;
68140;SDS011;54941;52.220;104.306;2023-09-08T06:09:06;4.70;;;2.85;;
68140;SDS011;54941;52.220;104.306;2023-09-08T06:11:32;6.07;;;3.28;;
68140;SDS011;54941;52.220;104.306;2023-09-08T06:13:58;6.93;;;2.85;;
68140;SDS011;54941;52.220;104.306;2023-09-08T06:16:26;5.15;;;2.97;;
68140;SDS011;54941;52.220;104.306;2023-09-08T06:18:52;5.05;;;2.70;;
68140;SDS011;54941;52.220;104.306;2023-09-08T06:21:19;5.43;;;2.70;;
68140;SDS011;54941;52.220;104.306;2023-09-08T06:23:45;8.23;;;3.90;;
68140;SDS011;54941;52.220;104.306;2023-09-08T06:26:11;11.05;;;3.63;;
68140;SDS011;54941;52.220;104.306;2023-09-08T06:28:38;7.53;;;3.70;;
68140;SDS011;54941;52.220;104.306;2023-09-08T06:31:04;6.93;;;3.60;;
68140;SDS011;54941;52.220;104.306;2023-09-08T06:33:32;9.00;;;4.10;;
68140;SDS011;54941;52.220;104.306;2023-09-08T06:35:58;9.75;;;3.78;;
68140;SDS011;54941;52.220;104.306;2023-09-08T06:38:24;8.68;;;3.83;;
68140;SDS011;54941;52.220;104.306;2023-09-08T06:40:51;6.97;;;3.75;;
68140;SDS011;54941;52.220;104.306;2023-09-08T06:43:17;6.47;;;4.28;;
68140;SDS011;54941;52.220;104.306;2023-09-08T06:45:46;9.18;;;4.10;;
68140;SDS011;54941;52.220;104.306;2023-09-08T06:48:13;7.85;;;3.78;;
68140;SDS011;54941;52.220;104.306;2023-09-08T06:50:40;6.97;;;3.20;;
68140;SDS011;54941;52.220;104.306;2023-09-08T06:53:07;4.70;;;2.60;;
68140;SDS011;54941;52.220;104.306;2023-09-08T06:55:33;5.05;;;3.08;;
68140;SDS011;54941;52.220;104.306;2023-09-08T06:57:59;6.32;;;3.00;;
68140;SDS011;54941;52.220;104.306;2023-09-08T07:00:26;5.20;;;3.20;;
68140;SDS011;54941;52.220;104.306;2023-09-08T07:02:52;7.93;;;3.40;;
68140;SDS011;54941;52.220;104.306;2023-09-08T07:05:18;8.38;;;3.78;;
68140;SDS011;54941;52.220;104.306;2023-09-08T07:07:46;8.40;;;3.40;;
68140;SDS011;54941;52.220;104.306;2023-09-08T07:10:12;10.60;;;3.42;;
68140;SDS011;54941;52.220;104.306;2023-09-08T07:12:39;8.00;;;3.30;;
68140;SDS011;54941;52.220;104.306;2023-09-08T07:15:05;6.97;;;3.70;;
68140;SDS011;54941;52.220;104.306;2023-09-08T07:17:32;6.35;;;3.35;;
68140;SDS011;54941;52.220;104.306;2023-09-08T07:19:59;5.25;;;3.10;;
68140;SDS011;54941;52.220;104.306;2023-09-08T07:22:25;10.98;;;5.53;;
68140;SDS011;54941;52.220;104.306;2023-09-08T07:24:53;7.30;;;3.40;;
68140;SDS011;54941;52.220;104.306;2023-09-08T07:27:19;7.13;;;3.00;;
68140;SDS011;54941;52.220;104.306;2023-09-08T07:29:45;9.32;;;3.40;;
68140;SDS011;54941;52.220;104.306;2023-09-08T07:32:11;7.47;;;2.88;;
68140;SDS011;54941;52.220;104.306;2023-09-08T07:34:38;6.85;;;2.63;;
68140;SDS011;54941;52.220;104.306;2023-09-08T07:37:04;7.55;;;2.47;;
68140;SDS011;54941;52.220;104.306;2023-09-08T07:39:30;4.95;;;2.53;;
68140;SDS011;54941;52.220;104.306;2023-09-08T07:41:58;6.30;;;2.85;;
68140;SDS011;54941;52.220;104.306;2023-09-08T07:44:24;6.20;;;3.40;;
68140;SDS011;54941;52.220;104.306;2023-09-08T07:46:51;6.22;;;3.25;;
68140;SDS011;54941;52.220;104.306;2023-09-08T07:49:17;7.60;;;3.33;;
68140;SDS011;54941;52.220;104.306;2023-09-08T07:51:44;7.13;;;3.08;;
68140;SDS011;54941;52.220;104.306;2023-09-08T07:54:10;7.50;;;3.33;;
68140;SDS011;54941;52.220;104.306;2023-09-08T07:56:36;5.45;;;2.85;;
68140;SDS011;54941;52.220;104.306;2023-09-08T07:59:04;5.28;;;3.00;;
68140;SDS011;54941;52.220;104.306;2023-09-08T08:01:31;6.30;;;3.17;;
68140;SDS011;54941;52.220;104.306;2023-09-08T08:03:57;5.47;;;3.10;;
68140;SDS011;54941;52.220;104.306;2023-09-08T08:06:23;5.05;;;2.60;;
68140;SDS011;54941;52.220;104.306;2023-09-08T08:08:50;6.10;;;3.03;;
68140;SDS011;54941;52.220;104.306;2023-09-08T08:11:16;5.55;;;3.08;;
68140;SDS011;54941;52.220;104.306;2023-09-08T08:13:42;9.32;;;3.83;;
68140;SDS011;54941;52.220;104.306;2023-09-08T08:16:10;11.55;;;3.83;;
68140;SDS011;54941;52.220;104.306;2023-09-08T08:18:37;7.70;;;4.20;;
68140;SDS011;54941;52.220;104.306;2023-09-08T08:21:03;6.00;;;3.75;;
68140;SDS011;54941;52.220;104.306;2023-09-08T08:23:29;8.40;;;4.22;;
68140;SDS011;54941;52.220;104.306;2023-09-08T08:25:56;10.38;;;4.38;;
68140;SDS011;54941;52.220;104.306;2023-09-08T08:28:22;10.30;;;4.82;;
68140;SDS011;54941;52.220;104.306;2023-09-08T08:30:49;8.85;;;4.28;;
68140;SDS011;54941;52.220;104.306;2023-09-08T08:33:16;9.77;;;4.45;;
68140;SDS011;54941;52.220;104.306;2023-09-08T08:35:48;12.00;;;4.47;;
68140;SDS011;54941;52.220;104.306;2023-09-08T08:38:14;7.10;;;4.18;;
68140;SDS011;54941;52.220;104.306;2023-09-08T08:40:40;7.13;;;3.70;;
68140;SDS011;54941;52.220;104.306;2023-09-08T08:43:07;9.82;;;4.45;;
68140;SDS011;54941;52.220;104.306;2023-09-08T08:45:33;8.65;;;4.68;;
68140;SDS011;54941;52.220;104.306;2023-09-08T08:48:00;8.60;;;4.20;;
68140;SDS011;54941;52.220;104.306;2023-09-08T08:50:31;7.82;;;3.92;;
68140;SDS011;54941;52.220;104.306;2023-09-08T08:52:58;7.80;;;4.03;;
68140;SDS011;54941;52.220;104.306;2023-09-08T08:55:24;6.63;;;4.18;;
68140;SDS011;54941;52.220;104.306;2023-09-08T08:57:52;8.88;;;4.82;;
68140;SDS011;54941;52.220;104.306;2023-09-08T09:00:18;8.88;;;4.90;;
68140;SDS011;54941;52.220;104.306;2023-09-08T09:02:45;7.00;;;4.53;;
68140;SDS011;54941;52.220;104.306;2023-09-08T09:05:13;8.77;;;4.75;;
68140;SDS011;54941;52.220;104.306;2023-09-08T09:07:41;7.43;;;4.32;;
68140;SDS011;54941;52.220;104.306;2023-09-08T09:10:08;12.73;;;4.40;;
68140;SDS011;54941;52.220;104.306;2023-09-08T09:12:36;10.15;;;4.50;;
68140;SDS011;54941;52.220;104.306;2023-09-08T09:15:02;9.05;;;4.00;;
68140;SDS011;54941;52.220;104.306;2023-09-08T09:17:29;8.38;;;4.30;;
68140;SDS011;54941;52.220;104.306;2023-09-08T09:22:42;8.27;;;4.13;;
68140;SDS011;54941;52.220;104.306;2023-09-08T09:25:08;7.25;;;3.65;;
68140;SDS011;54941;52.220;104.306;2023-09-08T09:27:34;6.70;;;3.90;;
68140;SDS011;54941;52.220;104.306;2023-09-08T09:30:01;7.95;;;4.10;;
68140;SDS011;54941;52.220;104.306;2023-09-08T09:34:56;7.45;;;4.25;;
68140;SDS011;54941;52.220;104.306;2023-09-08T09:37:23;6.35;;;4.10;;
68140;SDS011;54941;52.220;104.306;2023-09-08T09:39:51;8.38;;;4.70;;
68140;SDS011;54941;52.220;104.306;2023-09-08T09:42:18;9.27;;;4.50;;
68140;SDS011;54941;52.220;104.306;2023-09-08T09:44:46;8.77;;;4.78;;
68140;SDS011;54941;52.220;104.306;2023-09-08T09:47:12;8.95;;;4.85;;
68140;SDS011;54941;52.220;104.306;2023-09-08T09:49:41;9.40;;;5.30;;
68140;SDS011;54941;52.220;104.306;2023-09-08T09:52:08;8.45;;;4.85;;
68140;SDS011;54941;52.220;104.306;2023-09-08T09:54:36;10.52;;;5.70;;
68140;SDS011;54941;52.220;104.306;2023-09-08T09:57:04;9.25;;;5.38;;
68140;SDS011;54941;52.220;104.306;2023-09-08T09:59:31;11.57;;;6.38;;
68140;SDS011;54941;52.220;104.306;2023-09-08T10:01:58;14.13;;;7.30;;
68140;SDS011;54941;52.220;104.306;2023-09-08T10:04:25;13.48;;;8.80;;
68140;SDS011;54941;52.220;104.306;2023-09-08T10:06:53;16.17;;;10.20;;
68140;SDS011;54941;52.220;104.306;2023-09-08T10:09:20;12.73;;;8.40;;
68140;SDS011;54941;52.220;104.306;2023-09-08T10:11:47;13.10;;;8.65;;
68140;SDS011;54941;52.220;104.306;2023-09-08T10:14:16;16.25;;;9.52;;
68140;SDS011;54941;52.220;104.306;2023-09-08T10:16:44;14.52;;;9.27;;
68140;SDS011;54941;52.220;104.306;2023-09-08T10:19:11;16.60;;;10.02;;
68140;SDS011;54941;52.220;104.306;2023-09-08T10:21:39;15.98;;;9.75;;
68140;SDS011;54941;52.220;104.306;2023-09-08T10:24:09;14.25;;;8.70;;
68140;SDS011;54941;52.220;104.306;2023-09-08T10:26:40;14.18;;;8.85;;
68140;SDS011;54941;52.220;104.306;2023-09-08T10:29:10;14.98;;;9.63;;
68140;SDS011;54941;52.220;104.306;2023-09-08T10:31:39;13.75;;;9.27;;
68140;SDS011;54941;52.220;104.306;2023-09-08T10:34:06;14.13;;;9.75;;
68140;SDS011;54941;52.220;104.306;2023-09-08T10:36:34;14.77;;;9.88;;
68140;SDS011;54941;52.220;104.306;2023-09-08T10:47:54;16.92;;;10.85;;
68140;SDS011;54941;52.220;104.306;2023-09-08T10:50:25;20.55;;;12.80;;
68140;SDS011;54941;52.220;104.306;2023-09-08T10:53:07;23.05;;;13.65;;
68140;SDS011;54941;52.220;104.306;2023-09-08T10:55:39;26.13;;;14.77;;
68140;SDS011;54941;52.220;104.306;2023-09-08T10:58:06;21.60;;;14.13;;
68140;SDS011;54941;52.220;104.306;2023-09-08T11:00:44;20.27;;;13.50;;
68140;SDS011;54941;52.220;104.306;2023-09-08T11:03:14;20.95;;;12.82;;
68140;SDS011;54941;52.220;104.306;2023-09-08T11:05:50;20.27;;;12.32;;
68140;SDS011;54941;52.220;104.306;2023-09-08T11:08:17;20.88;;;13.52;;
68140;SDS011;54941;52.220;104.306;2023-09-08T11:10:44;22.65;;;15.35;;
68140;SDS011;54941;52.220;104.306;2023-09-08T11:13:10;21.40;;;13.70;;
68140;SDS011;54941;52.220;104.306;2023-09-08T11:15:37;22.45;;;13.38;;
68140;SDS011;54941;52.220;104.306;2023-09-08T11:18:06;24.52;;;14.70;;
68140;SDS011;54941;52.220;104.306;2023-09-08T11:20:35;18.90;;;13.70;;
68140;SDS011;54941;52.220;104.306;2023-09-08T11:23:01;20.48;;;14.25;;
68140;SDS011;54941;52.220;104.306;2023-09-08T11:25:28;21.85;;;14.07;;
68140;SDS011;54941;52.220;104.306;2023-09-08T11:27:55;21.38;;;13.35;;
68140;SDS011;54941;52.220;104.306;2023-09-08T11:30:22;21.83;;;13.82;;
68140;SDS011;54941;52.220;104.306;2023-09-08T11:32:50;23.80;;;15.10;;
68140;SDS011;54941;52.220;104.306;2023-09-08T11:35:16;21.70;;;14.05;;
68140;SDS011;54941;52.220;104.306;2023-09-08T11:37:44;20.77;;;14.43;;
68140;SDS011;54941;52.220;104.306;2023-09-08T11:40:10;25.10;;;14.95;;
68140;SDS011;54941;52.220;104.306;2023-09-08T11:42:37;23.48;;;13.60;;
68140;SDS011;54941;52.220;104.306;2023-09-08T11:45:04;24.20;;;13.15;;
68140;SDS011;54941;52.220;104.306;2023-09-08T11:47:31;22.75;;;13.25;;
68140;SDS011;54941;52.220;104.306;2023-09-08T11:49:58;21.88;;;14.05;;
68140;SDS011;54941;52.220;104.306;2023-09-08T11:52:24;21.73;;;14.48;;
68140;SDS011;54941;52.220;104.306;2023-09-08T11:54:52;25.05;;;13.90;;
68140;SDS011;54941;52.220;104.306;2023-09-08T11:57:18;23.73;;;13.70;;
68140;SDS011;54941;52.220;104.306;2023-09-08T11:59:45;23.88;;;13.82;;
68140;SDS011;54941;52.220;104.306;2023-09-08T12:02:12;25.10;;;14.55;;
68140;SDS011;54941;52.220;104.306;2023-09-08T12:04:39;21.10;;;12.73;;
68140;SDS011;54941;52.220;104.306;2023-09-08T12:07:05;21.33;;;13.68;;
68140;SDS011;54941;52.220;104.306;2023-09-08T12:09:31;20.52;;;12.88;;
68140;SDS011;54941;52.220;104.306;2023-09-08T12:11:59;19.30;;;12.77;;
68140;SDS011;54941;52.220;104.306;2023-09-08T12:14:28;22.80;;;13.98;;
68140;SDS011;54941;52.220;104.306;2023-09-08T12:17:04;21.00;;;13.60;;
68140;SDS011;54941;52.220;104.306;2023-09-08T12:19:31;22.40;;;13.70;;
68140;SDS011;54941;52.220;104.306;2023-09-08T12:21:59;21.20;;;12.68;;
68140;SDS011;54941;52.220;104.306;2023-09-08T12:24:55;19.73;;;12.55;;
68140;SDS011;54941;52.220;104.306;2023-09-08T12:27:24;20.08;;;12.43;;
68140;SDS011;54941;52.220;104.306;2023-09-08T12:29:54;20.65;;;11.75;;
68140;SDS011;54941;52.220;104.306;2023-09-08T12:32:21;18.38;;;11.50;;
68140;SDS011;54941;52.220;104.306;2023-09-08T12:34:48;17.10;;;10.50;;
68140;SDS011;54941;52.220;104.306;2023-09-08T12:37:14;15.50;;;10.13;;
68140;SDS011;54941;52.220;104.306;2023-09-08T12:39:44;15.35;;;9.13;;
68140;SDS011;54941;52.220;104.306;2023-09-08T12:42:10;14.25;;;9.25;;
68140;SDS011;54941;52.220;104.306;2023-09-08T12:44:38;15.23;;;9.68;;
68140;SDS011;54941;52.220;104.306;2023-09-08T12:47:05;15.35;;;9.93;;
68140;SDS011;54941;52.220;104.306;2023-09-08T12:49:31;16.75;;;10.20;;
68140;SDS011;54941;52.220;104.306;2023-09-08T12:51:58;15.25;;;10.23;;
68140;SDS011;54941;52.220;104.306;2023-09-08T12:54:24;22.13;;;12.77;;
68140;SDS011;54941;52.220;104.306;2023-09-08T12:56:50;16.63;;;10.73;;
68140;SDS011;54941;52.220;104.306;2023-09-08T12:59:17;15.13;;;10.15;;
68140;SDS011;54941;52.220;104.306;2023-09-08T13:01:44;15.73;;;10.02;;
68140;SDS011;54941;52.220;104.306;2023-09-08T13:04:11;15.30;;;9.50;;
68140;SDS011;54941;52.220;104.306;2023-09-08T13:06:37;14.75;;;8.82;;
68140;SDS011;54941;52.220;104.306;2023-09-08T13:09:03;13.80;;;8.40;;
68140;SDS011;54941;52.220;104.306;2023-09-08T13:11:30;13.95;;;8.52;;
68140;SDS011;54941;52.220;104.306;2023-09-08T13:13:57;14.18;;;8.80;;
68140;SDS011;54941;52.220;104.306;2023-09-08T13:16:23;13.32;;;8.07;;
68140;SDS011;54941;52.220;104.306;2023-09-08T13:18:51;14.00;;;8.68;;
68140;SDS011;54941;52.220;104.306;2023-09-08T13:21:17;14.32;;;8.65;;
68140;SDS011;54941;52.220;104.306;2023-09-08T13:23:43;14.65;;;8.82;;
68140;SDS011;54941;52.220;104.306;2023-09-08T13:26:10;12.50;;;7.82;;
68140;SDS011;54941;52.220;104.306;2023-09-08T13:28:36;12.55;;;8.25;;
68140;SDS011;54941;52.220;104.306;2023-09-08T13:31:02;14.68;;;8.13;;
68140;SDS011;54941;52.220;104.306;2023-09-08T13:33:29;12.57;;;7.60;;
68140;SDS011;54941;52.220;104.306;2023-09-08T13:35:56;11.85;;;7.72;;
68140;SDS011;54941;52.220;104.306;2023-09-08T13:38:23;12.32;;;7.55;;
68140;SDS011;54941;52.220;104.306;2023-09-08T13:40:49;13.65;;;7.20;;
68140;SDS011;54941;52.220;104.306;2023-09-08T13:43:15;11.45;;;6.65;;
68140;SDS011;54941;52.220;104.306;2023-09-08T13:45:42;12.25;;;6.93;;
68140;SDS011;54941;52.220;104.306;2023-09-08T13:48:08;10.90;;;8.48;;
68140;SDS011;54941;52.220;104.306;2023-09-08T13:50:34;10.77;;;6.60;;
68140;SDS011;54941;52.220;104.306;2023-09-08T13:53:02;9.50;;;5.80;;
68140;SDS011;54941;52.220;104.306;2023-09-08T13:55:29;7.75;;;5.03;;
68140;SDS011;54941;52.220;104.306;2023-09-08T13:57:55;9.27;;;5.63;;
68140;SDS011;54941;52.220;104.306;2023-09-08T14:00:21;7.93;;;5.50;;
68140;SDS011;54941;52.220;104.306;2023-09-08T14:02:48;10.10;;;5.32;;
68140;SDS011;54941;52.220;104.306;2023-09-08T14:05:14;10.40;;;6.32;;
68140;SDS011;54941;52.220;104.306;2023-09-08T14:07:41;11.77;;;6.72;;
68140;SDS011;54941;52.220;104.306;2023-09-08T14:10:09;12.50;;;7.88;;
68140;SDS011;54941;52.220;104.306;2023-09-08T14:12:35;16.25;;;10.07;;
68140;SDS011;54941;52.220;104.306;2023-09-08T14:15:01;12.52;;;7.20;;
68140;SDS011;54941;52.220;104.306;2023-09-08T14:17:31;11.02;;;6.70;;
68140;SDS011;54941;52.220;104.306;2023-09-08T14:19:57;11.70;;;7.38;;
68140;SDS011;54941;52.220;104.306;2023-09-08T14:22:23;11.95;;;7.07;;
68140;SDS011;54941;52.220;104.306;2023-09-08T14:24:50;13.32;;;7.63;;